createdAt,value
2023-04-07T00:01:25.997Z,87.92
2023-04-07T00:06:25.942Z,87.20
2023-04-07T00:11:25.866Z,87.76
2023-04-07T00:16:25.845Z,87.85
2023-04-07T00:21:26.861Z,87.61
2023-04-07T00:26:25.696Z,87.30
2023-04-07T00:31:25.699Z,87.82
2023-04-07T00:36:25.752Z,87.30
2023-04-07T00:41:25.581Z,86.85
2023-04-07T00:46:25.641Z,87.06
2023-04-07T00:51:25.439Z,86.85
2023-04-07T00:56:25.539Z,86.65
2023-04-07T01:01:25.479Z,86.65
2023-04-07T01:06:25.362Z,86.55
2023-04-07T01:11:25.187Z,86.34
2023-04-07T01:16:25.257Z,86.55
2023-04-07T01:21:25.127Z,86.65
2023-04-07T01:26:25.052Z,86.75
2023-04-07T01:31:25.065Z,86.65
2023-04-07T01:36:24.973Z,86.65
2023-04-07T01:41:24.879Z,87.26
2023-04-07T01:46:24.805Z,87.16
2023-04-07T01:51:24.765Z,86.96
2023-04-07T01:56:24.795Z,87.06
2023-04-07T02:01:24.856Z,87.26
2023-04-07T02:06:24.663Z,87.26
2023-04-07T02:11:24.529Z,87.37
2023-04-07T02:16:24.663Z,86.96
2023-04-07T02:21:24.547Z,87.06
2023-04-07T02:26:24.380Z,86.96
2023-04-07T02:31:24.366Z,86.91
2023-04-07T02:36:24.285Z,86.96
2023-04-07T02:41:24.204Z,86.75
2023-04-07T02:46:24.202Z,87.22
2023-04-07T02:51:24.114Z,86.91
2023-04-07T02:56:25.014Z,88.39
2023-04-07T03:01:24.027Z,87.73
2023-04-07T03:06:23.919Z,87.73
2023-04-07T03:11:23.860Z,87.12
2023-04-07T03:16:23.817Z,87.73
2023-04-07T03:21:24.858Z,87.94
2023-04-07T03:26:23.744Z,89.11
2023-04-07T03:31:23.812Z,89.06
2023-04-07T03:36:23.657Z,88.20
2023-04-07T03:41:23.638Z,88.24
2023-04-07T03:46:23.582Z,88.35
2023-04-07T03:51:23.544Z,89.27
2023-04-07T03:56:23.435Z,88.10
2023-04-07T04:01:23.433Z,88.51
2023-04-07T04:06:23.304Z,88.82
2023-04-07T04:11:23.226Z,88.65
2023-04-07T04:16:23.234Z,89.06
2023-04-07T04:21:23.109Z,88.31
2023-04-07T04:26:23.157Z,88.20
2023-04-07T04:31:23.036Z,90.03
2023-04-07T04:36:23.007Z,89.89
2023-04-07T04:41:22.921Z,89.47
2023-04-07T04:46:22.881Z,89.37
2023-04-07T04:51:22.815Z,88.20
2023-04-07T04:56:22.803Z,87.79
2023-04-07T05:01:22.830Z,88.62
2023-04-07T05:06:22.674Z,88.62
2023-04-07T05:11:22.617Z,88.24
2023-04-07T05:16:22.621Z,88.00
2023-04-07T05:21:22.502Z,87.90
2023-04-07T05:26:22.407Z,89.21
2023-04-07T05:31:22.425Z,88.24
2023-04-07T05:36:22.349Z,88.24
2023-04-07T05:41:22.375Z,88.31
2023-04-07T05:46:22.309Z,88.41
2023-04-07T05:51:22.266Z,88.96
2023-04-07T05:56:23.161Z,88.86
2023-04-07T06:01:22.136Z,88.86
2023-04-07T06:06:22.091Z,88.65
2023-04-07T06:11:22.029Z,88.45
2023-04-07T06:16:21.889Z,89.11
2023-04-07T06:21:21.894Z,88.35
2023-04-07T06:26:21.776Z,87.59
2023-04-07T06:31:21.708Z,87.84
2023-04-07T06:36:21.686Z,87.32
2023-04-07T06:41:22.118Z,87.38
2023-04-07T06:46:21.578Z,87.38
2023-04-07T06:51:21.539Z,86.83
2023-04-07T06:56:21.468Z,87.84
2023-04-07T07:01:21.435Z,87.45
2023-04-07T07:06:21.381Z,87.22
2023-04-07T07:11:21.254Z,86.94
2023-04-07T07:16:24.531Z,87.04
2023-04-07T07:21:21.125Z,86.98
2023-04-07T07:26:21.077Z,87.63
2023-04-07T07:31:21.103Z,87.38
2023-04-07T07:36:20.982Z,87.79
2023-04-07T07:41:20.959Z,86.98
2023-04-07T07:46:20.896Z,87.73
2023-04-07T07:51:20.770Z,87.53
2023-04-07T07:56:20.782Z,86.94
2023-04-07T08:01:20.792Z,86.53
2023-04-07T08:06:20.746Z,86.73
2023-04-07T08:11:20.577Z,86.69
2023-04-07T08:16:20.819Z,86.18
2023-04-07T08:21:20.542Z,85.57
2023-04-07T08:26:20.486Z,85.97
2023-04-07T08:31:20.396Z,86.04
2023-04-07T08:36:20.327Z,85.97
2023-04-07T08:41:20.210Z,86.35
2023-04-07T08:46:20.177Z,85.63
2023-04-07T08:51:20.119Z,85.88
2023-04-07T08:56:20.108Z,86.24
2023-04-07T09:01:20.075Z,86.69
2023-04-07T09:06:19.951Z,86.49
2023-04-07T09:11:19.932Z,87.00
2023-04-07T09:16:19.910Z,86.35
2023-04-07T09:21:19.830Z,86.24
2023-04-07T09:26:19.826Z,86.00
2023-04-07T09:31:19.679Z,86.04
2023-04-07T09:36:19.756Z,86.96
2023-04-07T09:41:19.667Z,86.30
2023-04-07T09:46:19.522Z,85.45
2023-04-07T09:51:19.448Z,85.14
2023-04-07T09:56:19.490Z,85.69
2023-04-07T10:01:19.388Z,85.65
2023-04-07T10:06:19.252Z,85.61
2023-04-07T10:11:19.282Z,85.75
2023-04-07T10:16:19.212Z,85.65
2023-04-07T10:21:19.113Z,85.00
2023-04-07T10:26:19.132Z,86.43
2023-04-07T10:31:19.075Z,85.47
2023-04-07T10:36:19.035Z,84.66
2023-04-07T10:41:18.913Z,84.66
2023-04-07T10:46:18.846Z,85.16
2023-04-07T10:51:18.782Z,85.10
2023-04-07T10:56:18.757Z,85.96
2023-04-07T11:01:18.730Z,86.02
2023-04-07T11:06:18.647Z,85.06
2023-04-07T11:11:18.573Z,85.33
2023-04-07T11:16:18.708Z,85.39
2023-04-07T11:21:18.547Z,84.17
2023-04-07T11:26:18.526Z,84.27
2023-04-07T11:31:18.376Z,85.14
2023-04-07T11:36:18.429Z,83.56
2023-04-07T11:41:18.281Z,84.75
2023-04-07T11:46:18.286Z,85.13
2023-04-07T11:51:18.169Z,83.80
2023-04-07T11:56:18.110Z,84.41
2023-04-07T12:01:18.057Z,84.92
2023-04-07T12:06:18.057Z,84.25
2023-04-07T12:11:17.930Z,84.59
2023-04-07T12:16:17.934Z,85.65
2023-04-07T12:21:17.904Z,85.41
2023-04-07T12:26:17.828Z,84.45
2023-04-07T12:31:17.797Z,84.72
2023-04-07T12:36:17.670Z,84.92
2023-04-07T12:41:17.609Z,84.20
2023-04-07T12:46:17.567Z,84.39
2023-04-07T12:51:17.539Z,84.75
2023-04-07T12:56:17.461Z,84.75
2023-04-07T13:01:17.414Z,85.22
2023-04-07T13:06:17.470Z,84.04
2023-04-07T13:11:17.258Z,85.33
2023-04-07T13:16:19.476Z,84.45
2023-04-07T13:26:17.230Z,85.57
2023-04-07T13:31:17.192Z,85.21
2023-04-07T13:36:17.046Z,85.92
2023-04-07T13:41:17.012Z,85.57
2023-04-07T13:46:27.201Z,84.18
2023-04-07T13:51:19.848Z,84.80
2023-04-07T13:56:16.745Z,85.43
2023-04-07T14:01:16.820Z,84.14
2023-04-07T14:06:16.922Z,84.66
2023-04-07T14:11:16.845Z,85.06
2023-04-07T14:16:16.525Z,84.86
2023-04-07T14:21:25.371Z,85.02
2023-04-07T14:26:16.404Z,85.74
2023-04-07T14:31:16.398Z,85.02
2023-04-07T14:36:16.317Z,84.20
2023-04-07T14:41:16.279Z,85.08
2023-04-07T14:46:16.260Z,84.64
2023-04-07T14:51:16.142Z,84.33
2023-04-07T14:56:16.068Z,83.35
2023-04-07T15:01:16.025Z,83.70
2023-04-07T15:06:16.069Z,84.98
2023-04-07T15:11:15.989Z,83.76
2023-04-07T15:16:16.072Z,84.23
2023-04-07T15:21:15.869Z,83.04
2023-04-07T15:26:15.899Z,83.39
2023-04-07T15:31:15.741Z,83.59
2023-04-07T15:36:15.646Z,83.59
2023-04-07T15:41:15.576Z,82.98
2023-04-07T15:46:15.836Z,83.70
2023-04-07T15:51:15.797Z,83.45
2023-04-07T15:56:15.589Z,83.29
2023-04-07T16:01:15.517Z,83.39
2023-04-07T16:06:15.287Z,83.09
2023-04-07T16:11:15.315Z,83.35
2023-04-07T16:16:15.174Z,83.65
2023-04-07T16:21:15.110Z,83.56
2023-04-07T16:26:15.178Z,83.70
2023-04-07T16:31:15.037Z,83.33
2023-04-07T16:36:15.056Z,83.53
2023-04-07T16:41:15.010Z,83.73
2023-04-07T16:46:14.939Z,84.28
2023-04-07T16:51:14.865Z,84.04
2023-04-07T16:56:14.912Z,85.41
2023-04-07T17:01:14.936Z,85.75
2023-04-07T17:06:14.671Z,85.35
2023-04-07T17:11:14.576Z,84.90
2023-04-07T17:16:14.596Z,84.28
2023-04-07T17:21:14.722Z,85.04
2023-04-07T17:26:14.773Z,85.14
2023-04-07T17:31:14.396Z,85.04
2023-04-07T17:36:14.434Z,85.08
2023-04-07T17:41:14.212Z,84.94
2023-04-07T17:46:14.354Z,84.94
2023-04-07T17:51:14.135Z,85.04
2023-04-07T17:56:14.099Z,85.14
2023-04-07T18:01:14.044Z,85.69
2023-04-07T18:06:13.997Z,85.35
2023-04-07T18:11:13.909Z,85.45
2023-04-07T18:16:13.932Z,85.79
2023-04-07T18:21:13.810Z,85.69
2023-04-07T18:26:13.755Z,85.59
2023-04-07T18:31:13.705Z,85.49
2023-04-07T18:36:13.726Z,85.28
2023-04-07T18:41:13.600Z,85.59
2023-04-07T18:46:13.535Z,85.49
2023-04-07T18:51:13.440Z,85.79
2023-04-07T18:56:13.402Z,86.10
2023-04-07T19:01:13.772Z,85.79
2023-04-07T19:06:13.285Z,85.89
2023-04-07T19:11:13.239Z,86.20
2023-04-07T19:16:13.235Z,86.24
2023-04-07T19:21:13.093Z,86.14
2023-04-07T19:26:13.110Z,86.24
2023-04-07T19:31:13.019Z,86.14
2023-04-07T19:36:12.983Z,86.30
2023-04-07T19:41:13.919Z,86.41
2023-04-07T19:46:12.925Z,86.20
2023-04-07T19:51:12.751Z,86.20
2023-04-07T19:56:12.719Z,86.20
2023-04-07T20:01:12.794Z,86.20
2023-04-07T20:06:12.599Z,86.04
2023-04-07T20:11:12.678Z,86.65
2023-04-07T20:16:12.617Z,86.76
2023-04-07T20:21:13.032Z,86.96
2023-04-07T20:29:45.280Z,86.85
2023-04-07T20:34:45.229Z,87.92
2023-04-07T20:39:45.168Z,87.76
2023-04-07T20:44:45.106Z,87.30
2023-04-07T20:49:45.099Z,86.85
2023-04-07T20:54:45.019Z,86.55
2023-04-07T20:59:44.953Z,86.65
2023-04-07T21:04:44.889Z,86.76
2023-04-07T21:09:44.853Z,86.55
2023-04-07T21:14:44.799Z,86.69
2023-04-07T21:19:44.742Z,86.69
2023-04-07T21:24:44.665Z,86.79
2023-04-07T21:29:44.600Z,86.76
2023-04-07T21:34:44.576Z,86.69
2023-04-07T21:39:44.522Z,86.76
2023-04-07T21:44:44.450Z,86.90
2023-04-07T21:49:44.401Z,86.90
2023-04-07T21:54:44.348Z,87.00
2023-04-07T21:59:44.270Z,86.85
2023-04-07T22:04:45.387Z,86.85
2023-04-07T22:09:44.175Z,86.79
2023-04-07T22:14:44.141Z,86.90
2023-04-07T22:19:44.112Z,86.85
2023-04-07T22:24:44.059Z,86.90
2023-04-07T22:29:44.002Z,87.20
2023-04-07T22:34:43.881Z,87.51
2023-04-07T22:39:43.864Z,87.41
2023-04-07T22:44:43.782Z,87.41
2023-04-07T22:49:43.709Z,87.10
2023-04-07T22:54:43.669Z,87.10
2023-04-07T22:59:43.650Z,87.24
2023-04-07T23:04:43.600Z,87.14
2023-04-07T23:09:43.501Z,88.00
2023-04-07T23:14:43.450Z,88.10
2023-04-07T23:19:43.384Z,87.59
2023-04-07T23:24:43.346Z,87.70
2023-04-07T23:29:43.275Z,87.90
2023-04-07T23:34:43.228Z,87.59
2023-04-07T23:39:43.192Z,87.29
2023-04-07T23:44:43.099Z,87.12
2023-04-07T23:49:43.045Z,87.32
2023-04-07T23:54:43.041Z,87.16
2023-04-07T23:59:42.962Z,87.20
